sensor_id;sensor_type;location;lat;lon;timestamp;temperature;humidity
25128;DHT22;13107;51.304;6.866;2023-12-14T00:01:05;7.80;99.90
25128;DHT22;13107;51.304;6.866;2023-12-14T00:05:11;7.70;99.90
25128;DHT22;13107;51.304;6.866;2023-12-14T00:09:13;7.70;99.90
25128;DHT22;13107;51.304;6.866;2023-12-14T00:13:15;7.70;99.90
25128;DHT22;13107;51.304;6.866;2023-12-14T00:17:16;7.70;99.90
25128;DHT22;13107;51.304;6.866;2023-12-14T00:21:18;7.80;99.90
25128;DHT22;13107;51.304;6.866;2023-12-14T00:25:20;7.70;99.90
25128;DHT22;13107;51.304;6.866;2023-12-14T00:29:22;7.80;99.90
25128;DHT22;13107;51.304;6.866;2023-12-14T00:33:23;7.90;99.90
25128;DHT22;13107;51.304;6.866;2023-12-14T00:37:25;7.70;99.90
25128;DHT22;13107;51.304;6.866;2023-12-14T00:41:27;7.70;99.90
25128;DHT22;13107;51.304;6.866;2023-12-14T00:45:29;7.70;99.90
25128;DHT22;13107;51.304;6.866;2023-12-14T00:49:30;7.50;99.90
25128;DHT22;13107;51.304;6.866;2023-12-14T00:53:32;7.40;99.90
25128;DHT22;13107;51.304;6.866;2023-12-14T00:57:34;7.50;99.90
25128;DHT22;13107;51.304;6.866;2023-12-14T01:01:36;7.40;99.90
25128;DHT22;13107;51.304;6.866;2023-12-14T01:05:37;7.40;99.90
25128;DHT22;13107;51.304;6.866;2023-12-14T01:09:39;7.40;99.90
25128;DHT22;13107;51.304;6.866;2023-12-14T01:13:41;7.50;99.90
25128;DHT22;13107;51.304;6.866;2023-12-14T01:17:43;7.40;99.90
25128;DHT22;13107;51.304;6.866;2023-12-14T01:21:45;7.40;99.90
25128;DHT22;13107;51.304;6.866;2023-12-14T01:25:46;7.40;99.90
25128;DHT22;13107;51.304;6.866;2023-12-14T01:29:48;7.30;99.90
25128;DHT22;13107;51.304;6.866;2023-12-14T01:33:51;7.30;99.90
25128;DHT22;13107;51.304;6.866;2023-12-14T01:37:53;7.30;99.90
25128;DHT22;13107;51.304;6.866;2023-12-14T01:41:54;7.40;99.90
25128;DHT22;13107;51.304;6.866;2023-12-14T01:45:56;7.40;99.90
25128;DHT22;13107;51.304;6.866;2023-12-14T01:49:58;7.30;99.90
25128;DHT22;13107;51.304;6.866;2023-12-14T01:54:00;7.30;99.90
25128;DHT22;13107;51.304;6.866;2023-12-14T01:58:02;7.10;99.90
25128;DHT22;13107;51.304;6.866;2023-12-14T02:02:04;7.00;99.90
25128;DHT22;13107;51.304;6.866;2023-12-14T02:06:07;7.00;99.90
25128;DHT22;13107;51.304;6.866;2023-12-14T02:10:08;7.00;99.90
25128;DHT22;13107;51.304;6.866;2023-12-14T02:14:11;6.90;99.90
25128;DHT22;13107;51.304;6.866;2023-12-14T02:18:13;6.90;99.90
25128;DHT22;13107;51.304;6.866;2023-12-14T02:22:16;6.90;99.90
25128;DHT22;13107;51.304;6.866;2023-12-14T02:26:18;6.90;99.90
25128;DHT22;13107;51.304;6.866;2023-12-14T02:30:20;6.90;99.90
25128;DHT22;13107;51.304;6.866;2023-12-14T02:34:22;6.80;99.90
25128;DHT22;13107;51.304;6.866;2023-12-14T02:38:26;6.90;99.90
25128;DHT22;13107;51.304;6.866;2023-12-14T02:42:28;6.80;99.90
25128;DHT22;13107;51.304;6.866;2023-12-14T02:46:30;6.90;99.90
25128;DHT22;13107;51.304;6.866;2023-12-14T02:50:31;6.90;99.90
25128;DHT22;13107;51.304;6.866;2023-12-14T02:54:33;6.90;99.90
25128;DHT22;13107;51.304;6.866;2023-12-14T02:58:35;6.80;99.90
25128;DHT22;13107;51.304;6.866;2023-12-14T03:02:37;6.80;99.90
25128;DHT22;13107;51.304;6.866;2023-12-14T03:06:39;6.80;99.90
25128;DHT22;13107;51.304;6.866;2023-12-14T03:10:40;6.70;99.90
25128;DHT22;13107;51.304;6.866;2023-12-14T03:14:42;6.70;99.90
25128;DHT22;13107;51.304;6.866;2023-12-14T03:18:44;6.60;99.90
25128;DHT22;13107;51.304;6.866;2023-12-14T03:22:46;6.60;99.90
25128;DHT22;13107;51.304;6.866;2023-12-14T03:26:48;6.50;99.90
25128;DHT22;13107;51.304;6.866;2023-12-14T03:30:50;6.60;99.90
25128;DHT22;13107;51.304;6.866;2023-12-14T03:34:51;6.40;99.90
25128;DHT22;13107;51.304;6.866;2023-12-14T03:38:53;6.50;99.90
25128;DHT22;13107;51.304;6.866;2023-12-14T03:42:55;6.50;99.90
25128;DHT22;13107;51.304;6.866;2023-12-14T03:46:57;6.50;99.90
25128;DHT22;13107;51.304;6.866;2023-12-14T03:51:03;6.60;99.90
25128;DHT22;13107;51.304;6.866;2023-12-14T03:55:05;6.40;99.90
25128;DHT22;13107;51.304;6.866;2023-12-14T03:59:07;6.40;99.90
25128;DHT22;13107;51.304;6.866;2023-12-14T04:03:09;6.50;99.90
25128;DHT22;13107;51.304;6.866;2023-12-14T04:07:10;6.40;99.90
25128;DHT22;13107;51.304;6.866;2023-12-14T04:11:12;6.40;99.90
25128;DHT22;13107;51.304;6.866;2023-12-14T04:15:14;6.30;99.90
25128;DHT22;13107;51.304;6.866;2023-12-14T04:19:16;6.20;99.90
25128;DHT22;13107;51.304;6.866;2023-12-14T04:23:18;6.20;99.90
25128;DHT22;13107;51.304;6.866;2023-12-14T04:27:20;6.10;99.90
25128;DHT22;13107;51.304;6.866;2023-12-14T04:31:22;6.10;99.90
25128;DHT22;13107;51.304;6.866;2023-12-14T04:35:24;6.10;99.90
25128;DHT22;13107;51.304;6.866;2023-12-14T04:39:26;6.10;99.90
25128;DHT22;13107;51.304;6.866;2023-12-14T04:43:28;6.10;99.90
25128;DHT22;13107;51.304;6.866;2023-12-14T04:47:32;6.00;99.90
25128;DHT22;13107;51.304;6.866;2023-12-14T04:51:34;6.10;99.90
25128;DHT22;13107;51.304;6.866;2023-12-14T04:55:35;6.00;99.90
25128;DHT22;13107;51.304;6.866;2023-12-14T04:59:37;6.00;99.90
25128;DHT22;13107;51.304;6.866;2023-12-14T05:03:42;6.00;99.90
25128;DHT22;13107;51.304;6.866;2023-12-14T05:07:44;6.10;99.90
25128;DHT22;13107;51.304;6.866;2023-12-14T05:11:45;6.00;99.90
25128;DHT22;13107;51.304;6.866;2023-12-14T05:15:47;6.00;99.90
25128;DHT22;13107;51.304;6.866;2023-12-14T05:19:49;6.00;99.90
25128;DHT22;13107;51.304;6.866;2023-12-14T05:23:51;5.90;99.90
25128;DHT22;13107;51.304;6.866;2023-12-14T05:27:53;6.00;99.90
25128;DHT22;13107;51.304;6.866;2023-12-14T05:31:55;6.00;99.90
25128;DHT22;13107;51.304;6.866;2023-12-14T05:35:57;6.00;99.90
25128;DHT22;13107;51.304;6.866;2023-12-14T05:39:58;6.10;99.90
25128;DHT22;13107;51.304;6.866;2023-12-14T05:44:00;6.10;99.90
25128;DHT22;13107;51.304;6.866;2023-12-14T05:48:02;6.10;99.90
25128;DHT22;13107;51.304;6.866;2023-12-14T05:52:07;6.10;99.90
25128;DHT22;13107;51.304;6.866;2023-12-14T05:56:09;6.00;99.90
25128;DHT22;13107;51.304;6.866;2023-12-14T06:00:11;6.00;99.90
25128;DHT22;13107;51.304;6.866;2023-12-14T06:04:13;5.90;99.90
25128;DHT22;13107;51.304;6.866;2023-12-14T06:08:14;6.10;99.90
25128;DHT22;13107;51.304;6.866;2023-12-14T06:12:16;6.00;99.90
25128;DHT22;13107;51.304;6.866;2023-12-14T06:16:18;6.10;99.90
25128;DHT22;13107;51.304;6.866;2023-12-14T06:20:20;6.00;99.90
25128;DHT22;13107;51.304;6.866;2023-12-14T06:24:22;6.00;99.90
25128;DHT22;13107;51.304;6.866;2023-12-14T06:28:24;6.00;99.90
25128;DHT22;13107;51.304;6.866;2023-12-14T06:32:25;6.00;99.90
25128;DHT22;13107;51.304;6.866;2023-12-14T06:36:27;6.00;99.90
25128;DHT22;13107;51.304;6.866;2023-12-14T06:40:31;6.10;99.90
25128;DHT22;13107;51.304;6.866;2023-12-14T06:44:33;6.00;99.90
25128;DHT22;13107;51.304;6.866;2023-12-14T06:48:36;5.90;99.90
25128;DHT22;13107;51.304;6.866;2023-12-14T06:52:38;5.80;99.90
25128;DHT22;13107;51.304;6.866;2023-12-14T06:56:40;5.90;99.90
25128;DHT22;13107;51.304;6.866;2023-12-14T07:00:42;5.90;99.90
25128;DHT22;13107;51.304;6.866;2023-12-14T07:04:44;5.90;99.90
25128;DHT22;13107;51.304;6.866;2023-12-14T07:08:45;5.80;99.90
25128;DHT22;13107;51.304;6.866;2023-12-14T07:12:49;5.80;99.90
25128;DHT22;13107;51.304;6.866;2023-12-14T07:16:50;5.70;99.90
25128;DHT22;13107;51.304;6.866;2023-12-14T07:20:52;5.70;99.90
25128;DHT22;13107;51.304;6.866;2023-12-14T07:24:54;5.60;99.90
25128;DHT22;13107;51.304;6.866;2023-12-14T07:29:01;5.80;99.90
25128;DHT22;13107;51.304;6.866;2023-12-14T07:33:02;5.80;99.90
25128;DHT22;13107;51.304;6.866;2023-12-14T07:37:06;5.80;99.90
25128;DHT22;13107;51.304;6.866;2023-12-14T07:41:08;5.70;99.90
25128;DHT22;13107;51.304;6.866;2023-12-14T07:45:09;5.80;99.90
25128;DHT22;13107;51.304;6.866;2023-12-14T07:49:12;5.60;99.90
25128;DHT22;13107;51.304;6.866;2023-12-14T07:53:13;5.60;99.90
25128;DHT22;13107;51.304;6.866;2023-12-14T07:57:15;5.60;99.90
25128;DHT22;13107;51.304;6.866;2023-12-14T08:01:17;5.40;99.90
25128;DHT22;13107;51.304;6.866;2023-12-14T08:05:19;5.50;99.90
25128;DHT22;13107;51.304;6.866;2023-12-14T08:09:21;5.50;99.90
25128;DHT22;13107;51.304;6.866;2023-12-14T08:13:22;5.50;99.90
25128;DHT22;13107;51.304;6.866;2023-12-14T08:17:24;5.50;99.90
25128;DHT22;13107;51.304;6.866;2023-12-14T08:21:26;5.50;99.90
25128;DHT22;13107;51.304;6.866;2023-12-14T08:25:28;5.60;99.90
25128;DHT22;13107;51.304;6.866;2023-12-14T08:29:30;5.70;99.90
25128;DHT22;13107;51.304;6.866;2023-12-14T08:33:31;5.70;99.90
25128;DHT22;13107;51.304;6.866;2023-12-14T08:37:35;5.60;99.90
25128;DHT22;13107;51.304;6.866;2023-12-14T08:41:37;5.70;99.90
25128;DHT22;13107;51.304;6.866;2023-12-14T08:45:38;5.70;99.90
25128;DHT22;13107;51.304;6.866;2023-12-14T08:49:40;5.60;99.90
25128;DHT22;13107;51.304;6.866;2023-12-14T08:53:42;5.70;99.90
25128;DHT22;13107;51.304;6.866;2023-12-14T08:57:44;5.70;99.90
25128;DHT22;13107;51.304;6.866;2023-12-14T09:01:46;5.60;99.90
25128;DHT22;13107;51.304;6.866;2023-12-14T09:05:48;5.50;99.90
25128;DHT22;13107;51.304;6.866;2023-12-14T09:09:50;5.60;99.90
25128;DHT22;13107;51.304;6.866;2023-12-14T09:13:52;5.50;99.90
25128;DHT22;13107;51.304;6.866;2023-12-14T09:17:54;5.60;99.90
25128;DHT22;13107;51.304;6.866;2023-12-14T09:21:56;5.60;99.90
25128;DHT22;13107;51.304;6.866;2023-12-14T09:25:59;5.60;99.90
25128;DHT22;13107;51.304;6.866;2023-12-14T09:30:01;5.50;99.90
25128;DHT22;13107;51.304;6.866;2023-12-14T09:34:03;5.50;99.90
25128;DHT22;13107;51.304;6.866;2023-12-14T09:38:06;5.60;99.90
25128;DHT22;13107;51.304;6.866;2023-12-14T09:42:09;5.60;99.90
25128;DHT22;13107;51.304;6.866;2023-12-14T09:46:11;5.60;99.90
25128;DHT22;13107;51.304;6.866;2023-12-14T09:50:14;5.70;99.90
25128;DHT22;13107;51.304;6.866;2023-12-14T09:54:17;5.70;99.90
25128;DHT22;13107;51.304;6.866;2023-12-14T09:58:20;5.70;99.90
25128;DHT22;13107;51.304;6.866;2023-12-14T10:02:27;5.60;99.90
25128;DHT22;13107;51.304;6.866;2023-12-14T10:06:30;5.60;99.90
25128;DHT22;13107;51.304;6.866;2023-12-14T10:10:31;5.60;99.90
25128;DHT22;13107;51.304;6.866;2023-12-14T10:14:34;5.70;99.90
25128;DHT22;13107;51.304;6.866;2023-12-14T10:18:35;5.70;99.90
25128;DHT22;13107;51.304;6.866;2023-12-14T10:22:38;5.90;99.90
25128;DHT22;13107;51.304;6.866;2023-12-14T10:26:40;5.70;99.90
25128;DHT22;13107;51.304;6.866;2023-12-14T10:30:42;5.60;99.90
25128;DHT22;13107;51.304;6.866;2023-12-14T10:34:44;5.70;99.90
25128;DHT22;13107;51.304;6.866;2023-12-14T10:38:48;5.70;99.90
25128;DHT22;13107;51.304;6.866;2023-12-14T10:42:50;5.80;99.90
25128;DHT22;13107;51.304;6.866;2023-12-14T10:46:55;5.90;99.90
25128;DHT22;13107;51.304;6.866;2023-12-14T10:51:00;5.80;99.90
25128;DHT22;13107;51.304;6.866;2023-12-14T10:55:07;5.70;99.90
25128;DHT22;13107;51.304;6.866;2023-12-14T10:59:10;6.00;99.90
25128;DHT22;13107;51.304;6.866;2023-12-14T11:03:16;6.00;99.90
25128;DHT22;13107;51.304;6.866;2023-12-14T11:07:18;6.00;99.90
25128;DHT22;13107;51.304;6.866;2023-12-14T11:11:21;5.90;99.90
25128;DHT22;13107;51.304;6.866;2023-12-14T11:15:23;5.80;99.90
25128;DHT22;13107;51.304;6.866;2023-12-14T11:19:26;5.80;99.90
25128;DHT22;13107;51.304;6.866;2023-12-14T11:23:36;5.90;99.90
25128;DHT22;13107;51.304;6.866;2023-12-14T11:27:43;5.80;99.90
25128;DHT22;13107;51.304;6.866;2023-12-14T11:31:45;5.80;99.90
25128;DHT22;13107;51.304;6.866;2023-12-14T11:35:47;5.80;99.90
25128;DHT22;13107;51.304;6.866;2023-12-14T11:39:50;6.00;99.90
25128;DHT22;13107;51.304;6.866;2023-12-14T11:43:52;5.90;99.90
25128;DHT22;13107;51.304;6.866;2023-12-14T11:47:54;5.90;99.90
25128;DHT22;13107;51.304;6.866;2023-12-14T11:51:56;5.90;99.90
25128;DHT22;13107;51.304;6.866;2023-12-14T11:55:59;5.80;99.90
25128;DHT22;13107;51.304;6.866;2023-12-14T12:00:04;5.80;99.90
25128;DHT22;13107;51.304;6.866;2023-12-14T12:04:09;5.70;99.90
25128;DHT22;13107;51.304;6.866;2023-12-14T12:08:12;5.90;99.90
25128;DHT22;13107;51.304;6.866;2023-12-14T12:12:15;5.80;99.90
25128;DHT22;13107;51.304;6.866;2023-12-14T12:16:16;5.90;99.90
25128;DHT22;13107;51.304;6.866;2023-12-14T12:20:18;5.90;99.90
25128;DHT22;13107;51.304;6.866;2023-12-14T12:24:20;5.80;99.90
25128;DHT22;13107;51.304;6.866;2023-12-14T12:28:30;5.80;99.90
25128;DHT22;13107;51.304;6.866;2023-12-14T12:32:32;5.80;99.90
25128;DHT22;13107;51.304;6.866;2023-12-14T12:36:34;5.90;99.90
25128;DHT22;13107;51.304;6.866;2023-12-14T12:40:41;5.80;99.90
25128;DHT22;13107;51.304;6.866;2023-12-14T12:44:43;5.90;99.90
25128;DHT22;13107;51.304;6.866;2023-12-14T12:48:45;5.70;99.90
25128;DHT22;13107;51.304;6.866;2023-12-14T12:52:48;5.60;99.90
25128;DHT22;13107;51.304;6.866;2023-12-14T12:56:51;5.60;99.90
25128;DHT22;13107;51.304;6.866;2023-12-14T13:00:53;5.50;99.90
25128;DHT22;13107;51.304;6.866;2023-12-14T13:04:54;5.60;99.90
25128;DHT22;13107;51.304;6.866;2023-12-14T13:08:56;5.60;99.90
25128;DHT22;13107;51.304;6.866;2023-12-14T13:12:58;5.60;99.90
25128;DHT22;13107;51.304;6.866;2023-12-14T13:17:00;5.60;99.90
25128;DHT22;13107;51.304;6.866;2023-12-14T13:21:02;5.60;99.90
25128;DHT22;13107;51.304;6.866;2023-12-14T13:25:04;5.60;99.90
25128;DHT22;13107;51.304;6.866;2023-12-14T13:29:06;5.60;99.90
25128;DHT22;13107;51.304;6.866;2023-12-14T13:33:08;5.60;99.90
25128;DHT22;13107;51.304;6.866;2023-12-14T13:37:13;5.60;99.90
25128;DHT22;13107;51.304;6.866;2023-12-14T13:41:15;5.40;99.90
25128;DHT22;13107;51.304;6.866;2023-12-14T13:45:17;5.50;99.90
25128;DHT22;13107;51.304;6.866;2023-12-14T13:49:18;5.50;99.90
25128;DHT22;13107;51.304;6.866;2023-12-14T13:53:21;5.40;99.90
25128;DHT22;13107;51.304;6.866;2023-12-14T13:57:23;5.40;99.90
25128;DHT22;13107;51.304;6.866;2023-12-14T14:01:24;5.40;99.90
25128;DHT22;13107;51.304;6.866;2023-12-14T14:05:26;5.40;99.90
25128;DHT22;13107;51.304;6.866;2023-12-14T14:09:28;5.40;99.90
25128;DHT22;13107;51.304;6.866;2023-12-14T14:13:31;5.40;99.90
25128;DHT22;13107;51.304;6.866;2023-12-14T14:17:34;5.40;99.90
25128;DHT22;13107;51.304;6.866;2023-12-14T14:21:36;5.40;99.90
25128;DHT22;13107;51.304;6.866;2023-12-14T14:25:38;5.40;99.90
25128;DHT22;13107;51.304;6.866;2023-12-14T14:29:40;5.30;99.90
25128;DHT22;13107;51.304;6.866;2023-12-14T14:33:42;5.30;99.90
25128;DHT22;13107;51.304;6.866;2023-12-14T14:37:43;5.20;99.90
25128;DHT22;13107;51.304;6.866;2023-12-14T14:41:47;5.30;99.90
25128;DHT22;13107;51.304;6.866;2023-12-14T14:45:49;5.30;99.90
25128;DHT22;13107;51.304;6.866;2023-12-14T14:49:51;5.20;99.90
25128;DHT22;13107;51.304;6.866;2023-12-14T14:53:53;5.30;99.90
25128;DHT22;13107;51.304;6.866;2023-12-14T14:57:55;5.20;99.90
25128;DHT22;13107;51.304;6.866;2023-12-14T15:01:56;5.20;99.90
25128;DHT22;13107;51.304;6.866;2023-12-14T15:06:01;5.20;99.90
25128;DHT22;13107;51.304;6.866;2023-12-14T15:10:03;5.20;99.90
25128;DHT22;13107;51.304;6.866;2023-12-14T15:14:04;5.20;99.90
25128;DHT22;13107;51.304;6.866;2023-12-14T15:18:06;5.20;99.90
25128;DHT22;13107;51.304;6.866;2023-12-14T15:22:08;5.20;99.90
25128;DHT22;13107;51.304;6.866;2023-12-14T15:26:10;5.10;99.90
25128;DHT22;13107;51.304;6.866;2023-12-14T15:30:13;5.10;99.90
25128;DHT22;13107;51.304;6.866;2023-12-14T15:34:15;5.20;99.90
25128;DHT22;13107;51.304;6.866;2023-12-14T15:38:17;5.10;99.90
25128;DHT22;13107;51.304;6.866;2023-12-14T15:42:19;5.20;99.90
25128;DHT22;13107;51.304;6.866;2023-12-14T15:46:21;5.20;99.90
25128;DHT22;13107;51.304;6.866;2023-12-14T15:50:23;5.20;99.90
25128;DHT22;13107;51.304;6.866;2023-12-14T15:54:25;5.10;99.90
25128;DHT22;13107;51.304;6.866;2023-12-14T15:58:26;5.10;99.90
25128;DHT22;13107;51.304;6.866;2023-12-14T16:02:29;5.10;99.90
25128;DHT22;13107;51.304;6.866;2023-12-14T16:06:31;5.10;99.90
25128;DHT22;13107;51.304;6.866;2023-12-14T16:10:33;5.10;99.90
25128;DHT22;13107;51.304;6.866;2023-12-14T16:14:35;5.10;99.90
25128;DHT22;13107;51.304;6.866;2023-12-14T16:18:37;5.10;99.90
25128;DHT22;13107;51.304;6.866;2023-12-14T16:22:39;5.20;99.90
25128;DHT22;13107;51.304;6.866;2023-12-14T16:26:41;5.10;99.90
25128;DHT22;13107;51.304;6.866;2023-12-14T16:30:43;5.20;99.90
25128;DHT22;13107;51.304;6.866;2023-12-14T16:34:45;5.20;99.90
25128;DHT22;13107;51.304;6.866;2023-12-14T16:38:47;5.20;99.90
25128;DHT22;13107;51.304;6.866;2023-12-14T16:42:49;5.20;99.90
25128;DHT22;13107;51.304;6.866;2023-12-14T16:46:51;5.20;99.90
25128;DHT22;13107;51.304;6.866;2023-12-14T16:50:53;5.20;99.90
25128;DHT22;13107;51.304;6.866;2023-12-14T16:54:55;5.20;99.90
25128;DHT22;13107;51.304;6.866;2023-12-14T16:58:57;5.20;99.90
25128;DHT22;13107;51.304;6.866;2023-12-14T17:02:59;5.20;99.90
25128;DHT22;13107;51.304;6.866;2023-12-14T17:07:01;5.20;99.90
25128;DHT22;13107;51.304;6.866;2023-12-14T17:11:03;5.20;99.90
25128;DHT22;13107;51.304;6.866;2023-12-14T17:15:07;5.10;99.90
25128;DHT22;13107;51.304;6.866;2023-12-14T17:19:13;5.20;99.90
25128;DHT22;13107;51.304;6.866;2023-12-14T17:23:14;5.20;99.90
25128;DHT22;13107;51.304;6.866;2023-12-14T17:27:16;5.10;99.90
25128;DHT22;13107;51.304;6.866;2023-12-14T17:31:19;5.10;99.90
25128;DHT22;13107;51.304;6.866;2023-12-14T17:35:21;5.10;99.90
25128;DHT22;13107;51.304;6.866;2023-12-14T17:39:23;5.10;99.90
25128;DHT22;13107;51.304;6.866;2023-12-14T17:43:25;5.10;99.90
25128;DHT22;13107;51.304;6.866;2023-12-14T17:47:27;5.00;99.90
25128;DHT22;13107;51.304;6.866;2023-12-14T17:51:28;4.90;99.90
25128;DHT22;13107;51.304;6.866;2023-12-14T17:55:30;4.80;99.90
25128;DHT22;13107;51.304;6.866;2023-12-14T17:59:32;4.70;99.90
25128;DHT22;13107;51.304;6.866;2023-12-14T18:03:34;4.40;99.90
25128;DHT22;13107;51.304;6.866;2023-12-14T18:07:36;4.30;99.90
25128;DHT22;13107;51.304;6.866;2023-12-14T18:11:39;4.10;99.90
25128;DHT22;13107;51.304;6.866;2023-12-14T18:15:41;3.90;99.90
25128;DHT22;13107;51.304;6.866;2023-12-14T18:19:43;3.90;99.90
25128;DHT22;13107;51.304;6.866;2023-12-14T18:23:44;3.70;99.90
25128;DHT22;13107;51.304;6.866;2023-12-14T18:27:46;3.60;99.90
25128;DHT22;13107;51.304;6.866;2023-12-14T18:31:48;3.50;99.90
25128;DHT22;13107;51.304;6.866;2023-12-14T18:35:50;3.40;99.90
25128;DHT22;13107;51.304;6.866;2023-12-14T18:39:51;3.50;99.90
25128;DHT22;13107;51.304;6.866;2023-12-14T18:43:53;3.40;99.90
25128;DHT22;13107;51.304;6.866;2023-12-14T18:47:56;3.40;99.90
25128;DHT22;13107;51.304;6.866;2023-12-14T18:51:58;3.20;99.90
25128;DHT22;13107;51.304;6.866;2023-12-14T18:56:01;3.20;99.90
25128;DHT22;13107;51.304;6.866;2023-12-14T19:00:04;3.20;99.90
25128;DHT22;13107;51.304;6.866;2023-12-14T19:04:06;3.10;99.90
25128;DHT22;13107;51.304;6.866;2023-12-14T19:08:08;3.00;99.90
25128;DHT22;13107;51.304;6.866;2023-12-14T19:12:10;3.00;99.90
25128;DHT22;13107;51.304;6.866;2023-12-14T19:16:12;2.90;99.90
25128;DHT22;13107;51.304;6.866;2023-12-14T19:20:14;2.90;99.90
25128;DHT22;13107;51.304;6.866;2023-12-14T19:24:16;2.90;99.90
25128;DHT22;13107;51.304;6.866;2023-12-14T19:28:18;2.80;99.90
25128;DHT22;13107;51.304;6.866;2023-12-14T19:32:20;2.70;99.90
25128;DHT22;13107;51.304;6.866;2023-12-14T19:36:22;2.80;99.90
25128;DHT22;13107;51.304;6.866;2023-12-14T19:40:24;2.80;99.90
25128;DHT22;13107;51.304;6.866;2023-12-14T19:44:26;2.80;99.90
25128;DHT22;13107;51.304;6.866;2023-12-14T19:48:29;2.90;99.90
25128;DHT22;13107;51.304;6.866;2023-12-14T19:52:31;3.00;99.90
25128;DHT22;13107;51.304;6.866;2023-12-14T19:56:33;3.10;99.90
25128;DHT22;13107;51.304;6.866;2023-12-14T20:00:34;3.20;99.90
25128;DHT22;13107;51.304;6.866;2023-12-14T20:04:37;3.20;99.90
25128;DHT22;13107;51.304;6.866;2023-12-14T20:08:38;3.40;99.90
25128;DHT22;13107;51.304;6.866;2023-12-14T20:12:41;3.40;99.90
25128;DHT22;13107;51.304;6.866;2023-12-14T20:16:47;3.50;99.90
25128;DHT22;13107;51.304;6.866;2023-12-14T20:20:49;3.70;99.90
25128;DHT22;13107;51.304;6.866;2023-12-14T20:24:52;3.70;99.90
25128;DHT22;13107;51.304;6.866;2023-12-14T20:28:53;3.80;99.90
25128;DHT22;13107;51.304;6.866;2023-12-14T20:32:55;3.90;99.90
25128;DHT22;13107;51.304;6.866;2023-12-14T20:36:57;3.90;99.90
25128;DHT22;13107;51.304;6.866;2023-12-14T20:40:59;4.00;99.90
25128;DHT22;13107;51.304;6.866;2023-12-14T20:45:00;3.90;99.90
25128;DHT22;13107;51.304;6.866;2023-12-14T20:49:02;4.00;99.90
25128;DHT22;13107;51.304;6.866;2023-12-14T20:53:04;4.10;99.90
25128;DHT22;13107;51.304;6.866;2023-12-14T20:57:06;4.10;99.90
25128;DHT22;13107;51.304;6.866;2023-12-14T21:01:08;4.20;99.90
25128;DHT22;13107;51.304;6.866;2023-12-14T21:05:10;4.30;99.90
25128;DHT22;13107;51.304;6.866;2023-12-14T21:09:12;4.50;99.90
25128;DHT22;13107;51.304;6.866;2023-12-14T21:13:14;4.50;99.90
25128;DHT22;13107;51.304;6.866;2023-12-14T21:17:18;4.50;99.90
25128;DHT22;13107;51.304;6.866;2023-12-14T21:21:20;4.60;99.90
25128;DHT22;13107;51.304;6.866;2023-12-14T21:25:22;4.60;99.90
25128;DHT22;13107;51.304;6.866;2023-12-14T21:29:28;4.60;99.90
25128;DHT22;13107;51.304;6.866;2023-12-14T21:33:31;4.70;99.90
25128;DHT22;13107;51.304;6.866;2023-12-14T21:37:33;4.70;99.90
25128;DHT22;13107;51.304;6.866;2023-12-14T21:41:35;4.70;99.90
25128;DHT22;13107;51.304;6.866;2023-12-14T21:45:37;4.70;99.90
25128;DHT22;13107;51.304;6.866;2023-12-14T21:49:39;4.80;99.90
25128;DHT22;13107;51.304;6.866;2023-12-14T21:53:41;4.70;99.90
25128;DHT22;13107;51.304;6.866;2023-12-14T21:57:43;4.70;99.90
25128;DHT22;13107;51.304;6.866;2023-12-14T22:01:44;4.80;99.90
25128;DHT22;13107;51.304;6.866;2023-12-14T22:05:46;4.80;99.90
25128;DHT22;13107;51.304;6.866;2023-12-14T22:09:48;4.80;99.90
25128;DHT22;13107;51.304;6.866;2023-12-14T22:13:50;4.80;99.90
25128;DHT22;13107;51.304;6.866;2023-12-14T22:17:52;4.80;99.90
25128;DHT22;13107;51.304;6.866;2023-12-14T22:21:54;4.90;99.90
25128;DHT22;13107;51.304;6.866;2023-12-14T22:25:56;4.90;99.90
25128;DHT22;13107;51.304;6.866;2023-12-14T22:29:58;4.80;99.90
25128;DHT22;13107;51.304;6.866;2023-12-14T22:33:59;4.90;99.90
25128;DHT22;13107;51.304;6.866;2023-12-14T22:38:01;4.90;99.90
25128;DHT22;13107;51.304;6.866;2023-12-14T22:42:05;4.90;99.90
25128;DHT22;13107;51.304;6.866;2023-12-14T22:46:07;4.90;99.90
25128;DHT22;13107;51.304;6.866;2023-12-14T22:50:12;4.80;99.90
25128;DHT22;13107;51.304;6.866;2023-12-14T22:54:14;4.80;99.90
25128;DHT22;13107;51.304;6.866;2023-12-14T22:58:16;4.90;99.90
25128;DHT22;13107;51.304;6.866;2023-12-14T23:02:18;5.00;99.90
25128;DHT22;13107;51.304;6.866;2023-12-14T23:06:20;5.00;99.90
25128;DHT22;13107;51.304;6.866;2023-12-14T23:10:22;4.90;99.90
25128;DHT22;13107;51.304;6.866;2023-12-14T23:14:24;4.80;99.90
25128;DHT22;13107;51.304;6.866;2023-12-14T23:18:26;4.70;99.90
25128;DHT22;13107;51.304;6.866;2023-12-14T23:22:28;4.60;99.90
25128;DHT22;13107;51.304;6.866;2023-12-14T23:26:29;4.60;99.90
25128;DHT22;13107;51.304;6.866;2023-12-14T23:30:31;4.50;99.90
25128;DHT22;13107;51.304;6.866;2023-12-14T23:34:33;4.50;99.90
25128;DHT22;13107;51.304;6.866;2023-12-14T23:38:36;4.50;99.90
25128;DHT22;13107;51.304;6.866;2023-12-14T23:42:38;4.40;99.90
25128;DHT22;13107;51.304;6.866;2023-12-14T23:46:40;4.30;99.90
25128;DHT22;13107;51.304;6.866;2023-12-14T23:50:42;4.30;99.90
25128;DHT22;13107;51.304;6.866;2023-12-14T23:54:43;4.20;99.90
25128;DHT22;13107;51.304;6.866;2023-12-14T23:58:45;4.20;99.90
